createdAt,value
2018-05-21T00:00:44.496Z,62.80
2018-05-21T00:03:12.010Z,63.30
2018-05-21T00:05:39.508Z,63.60
2018-05-21T00:08:06.999Z,63.80
2018-05-21T00:10:35.280Z,64.60
2018-05-21T00:13:03.536Z,65.20
2018-05-21T00:15:31.049Z,65.10
2018-05-21T00:17:58.544Z,65.20
2018-05-21T00:20:26.836Z,66.20
2018-05-21T00:22:55.100Z,66.70
2018-05-21T00:25:23.380Z,66.90
2018-05-21T00:27:50.872Z,67.00
2018-05-21T00:30:18.364Z,67.20
2018-05-21T00:32:45.880Z,67.90
2018-05-21T00:35:13.385Z,67.70
2018-05-21T00:37:40.901Z,68.40
2018-05-21T00:40:08.397Z,68.30
2018-05-21T00:42:35.920Z,69.00
2018-05-21T00:45:03.417Z,69.20
2018-05-21T00:47:30.917Z,69.80
2018-05-21T00:49:59.205Z,70.80
2018-05-21T00:52:27.464Z,71.30
2018-05-21T00:55:07.464Z,71.70
2018-05-21T00:57:34.955Z,71.70
2018-05-21T01:00:02.450Z,71.70
2018-05-21T01:02:29.968Z,72.20
2018-05-21T01:04:57.470Z,72.60
2018-05-21T01:07:24.988Z,73.20
2018-05-21T01:09:52.482Z,73.30
2018-05-21T01:12:20.746Z,74.20
2018-05-21T01:14:49.028Z,74.70
2018-05-21T01:17:17.285Z,75.00
2018-05-21T01:19:45.572Z,75.60
2018-05-21T01:22:13.836Z,75.90
2018-05-21T01:24:41.336Z,75.80
2018-05-21T01:27:08.854Z,76.30
2018-05-21T01:29:36.353Z,76.80
2018-05-21T01:32:03.868Z,77.20
2018-05-21T01:34:32.132Z,77.90
2018-05-21T01:36:59.635Z,78.00
2018-05-21T01:39:27.912Z,78.90
2018-05-21T01:41:56.178Z,79.60
2018-05-21T01:44:24.468Z,79.80
2018-05-21T01:46:51.964Z,79.80
2018-05-21T01:49:19.481Z,80.10
2018-05-21T01:51:46.992Z,80.80
2018-05-21T01:54:14.518Z,81.40
2018-05-21T01:56:42.008Z,82.10
2018-05-21T01:59:09.505Z,82.60
2018-05-21T02:01:37.785Z,83.70
2018-05-21T02:04:06.049Z,84.30
2018-05-21T02:06:34.333Z,84.90
2018-05-21T02:09:02.597Z,85.60
2018-05-21T02:11:30.112Z,85.60
2018-05-21T02:13:57.606Z,86.10
2018-05-21T02:16:25.120Z,86.80
2018-05-21T02:18:52.617Z,87.10
2018-05-21T02:21:20.112Z,87.80
2018-05-21T02:23:48.392Z,89.40
2018-05-21T02:26:15.884Z,89.30
2018-05-21T02:28:43.401Z,89.70
2018-05-21T02:31:11.660Z,90.60
2018-05-21T02:33:39.177Z,90.60
2018-05-21T02:36:06.676Z,90.90
2018-05-21T02:38:34.169Z,91.20
2018-05-21T02:41:01.689Z,91.50
2018-05-21T02:43:29.184Z,91.90
2018-05-21T02:45:56.701Z,92.00
2018-05-21T02:48:24.192Z,92.20
2018-05-21T02:50:51.714Z,92.40
2018-05-21T02:53:19.204Z,92.70
2018-05-21T02:55:47.487Z,93.10
2018-05-21T02:58:14.981Z,93.10
2018-05-21T03:00:42.475Z,93.30
2018-05-21T03:03:10.756Z,93.70
2018-05-21T03:05:39.016Z,94.00
2018-05-21T03:08:06.537Z,93.90
2018-05-21T03:10:34.032Z,94.20
2018-05-21T03:13:02.315Z,94.60
2018-05-21T03:15:29.808Z,94.60
2018-05-21T03:17:57.299Z,94.90
2018-05-21T03:20:24.816Z,95.10
2018-05-21T03:22:53.076Z,95.40
2018-05-21T03:25:20.588Z,95.40
2018-05-21T03:27:48.080Z,95.70
2018-05-21T03:30:15.598Z,95.90
2018-05-21T03:32:43.092Z,96.20
2018-05-21T03:35:10.612Z,96.30
2018-05-21T03:37:38.108Z,96.40
2018-05-21T03:40:06.371Z,97.10
2018-05-21T03:42:33.888Z,96.80
2018-05-21T03:45:01.381Z,97.00
2018-05-21T03:47:28.896Z,97.20
2018-05-21T03:49:57.153Z,97.40
2018-05-21T03:52:24.672Z,97.40
2018-05-21T03:54:52.179Z,97.90
2018-05-21T03:57:20.436Z,98.20
2018-05-21T04:00:00.668Z,98.00
2018-05-21T04:02:40.107Z,98.00
2018-05-21T04:05:07.616Z,98.20
2018-05-21T04:07:35.876Z,98.40
2018-05-21T04:10:04.163Z,98.50
2018-05-21T04:12:34.068Z,98.70
2018-05-21T04:15:02.349Z,98.50
2018-05-21T04:17:30.613Z,98.90
2018-05-21T04:19:58.103Z,98.90
2018-05-21T04:22:25.615Z,98.90
2018-05-21T04:24:53.104Z,99.00
2018-05-21T04:27:21.384Z,99.40
2018-05-21T04:29:49.640Z,99.60
2018-05-21T04:32:17.132Z,99.60
2018-05-21T04:34:44.644Z,99.60
2018-05-21T04:37:12.137Z,99.60
2018-05-21T04:39:40.416Z,99.80
2018-05-21T04:42:08.676Z,99.90
2018-05-21T04:44:36.175Z,99.90
2018-05-21T04:47:03.687Z,99.90
2018-05-21T04:49:32.684Z,99.90
2018-05-21T04:52:00.968Z,99.90
2018-05-21T04:54:29.226Z,99.90
2018-05-21T04:56:56.744Z,99.90
2018-05-21T04:59:24.235Z,99.90
2018-05-21T05:01:51.731Z,99.90
2018-05-21T05:04:20.013Z,99.90
2018-05-21T05:06:47.503Z,99.90
2018-05-21T05:09:15.016Z,99.90
2018-05-21T05:11:43.276Z,99.90
2018-05-21T05:14:11.559Z,99.90
2018-05-21T05:16:39.821Z,99.90
2018-05-21T05:19:07.315Z,99.90
2018-05-21T05:21:35.592Z,99.90
2018-05-21T05:24:03.084Z,99.90
2018-05-21T05:26:30.656Z,99.90
2018-05-21T05:28:58.130Z,99.90
2018-05-21T05:31:26.416Z,99.90
2018-05-21T05:33:53.912Z,99.90
2018-05-21T05:36:21.432Z,99.90
2018-05-21T05:38:48.928Z,99.90
2018-05-21T05:41:16.429Z,99.90
2018-05-21T05:43:43.954Z,99.90
2018-05-21T05:46:11.449Z,99.90
2018-05-21T05:48:38.968Z,99.90
2018-05-21T05:51:06.464Z,99.90
2018-05-21T05:53:33.985Z,99.90
2018-05-21T05:56:01.481Z,99.90
2018-05-21T05:58:28.980Z,99.90
2018-05-21T06:00:57.260Z,99.90
2018-05-21T06:03:25.520Z,99.90
2018-05-21T06:05:53.812Z,99.90
2018-05-21T06:08:22.064Z,99.90
2018-05-21T06:10:49.572Z,99.90
2018-05-21T06:13:17.072Z,99.90
2018-05-21T06:15:44.564Z,99.90
2018-05-21T06:18:12.843Z,99.90
2018-05-21T06:20:41.100Z,99.90
2018-05-21T06:23:09.388Z,99.90
2018-05-21T06:25:37.651Z,99.70
2018-05-21T06:28:05.164Z,99.70
2018-05-21T06:30:32.660Z,99.90
2018-05-21T06:33:00.916Z,99.50
2018-05-21T06:35:28.434Z,99.60
2018-05-21T06:37:55.929Z,98.80
2018-05-21T06:40:23.443Z,98.60
2018-05-21T06:42:50.940Z,98.00
2018-05-21T06:45:18.460Z,97.70
2018-05-21T06:47:46.056Z,97.50
2018-05-21T06:50:13.463Z,97.10
2018-05-21T06:52:41.744Z,96.40
2018-05-21T06:55:10.008Z,96.60
2018-05-21T06:57:38.296Z,96.30
2018-05-21T07:00:06.557Z,95.80
2018-05-21T07:02:34.072Z,95.80
2018-05-21T07:05:01.565Z,95.40
2018-05-21T07:07:29.061Z,95.10
2018-05-21T07:09:56.581Z,95.00
2018-05-21T07:12:25.585Z,95.30
2018-05-21T07:14:53.872Z,94.70
2018-05-21T07:17:22.136Z,95.00
2018-05-21T07:19:49.652Z,95.00
2018-05-21T07:22:17.145Z,94.70
2018-05-21T07:24:44.660Z,94.80
2018-05-21T07:27:12.152Z,94.80
2018-05-21T07:29:39.645Z,94.00
2018-05-21T07:32:07.924Z,94.50
2018-05-21T07:34:36.176Z,94.40
2018-05-21T07:37:03.688Z,94.40
2018-05-21T07:39:31.184Z,94.60
2018-05-21T07:42:00.212Z,93.60
2018-05-21T07:44:28.472Z,93.60
2018-05-21T07:46:56.727Z,93.90
2018-05-21T07:49:24.245Z,93.80
2018-05-21T07:51:51.740Z,93.20
2018-05-21T07:54:19.261Z,93.30
2018-05-21T07:56:46.757Z,92.80
2018-05-21T07:59:14.280Z,93.20
2018-05-21T08:01:41.771Z,92.90
2018-05-21T08:04:09.264Z,92.00
2018-05-21T08:06:37.545Z,92.00
2018-05-21T08:09:06.736Z,92.30
2018-05-21T08:11:35.021Z,91.60
2018-05-21T08:14:03.288Z,91.40
2018-05-21T08:16:31.568Z,91.70
2018-05-21T08:18:59.823Z,90.60
2018-05-21T08:21:27.320Z,90.60
2018-05-21T08:23:54.838Z,90.70
2018-05-21T08:26:22.332Z,91.20
2018-05-21T08:28:49.844Z,90.10
2018-05-21T08:31:17.340Z,90.00
2018-05-21T08:33:45.616Z,88.90
2018-05-21T08:36:13.880Z,87.20
2018-05-21T08:38:41.377Z,87.10
2018-05-21T08:41:08.906Z,84.60
2018-05-21T08:43:37.167Z,85.60
2018-05-21T08:46:04.680Z,85.40
2018-05-21T08:48:32.264Z,84.90
2018-05-21T08:50:59.705Z,83.80
2018-05-21T08:53:27.203Z,83.20
2018-05-21T08:55:54.733Z,83.90
2018-05-21T08:58:22.236Z,86.00
2018-05-21T09:00:50.491Z,83.80
2018-05-21T09:03:18.009Z,83.80
2018-05-21T09:05:45.504Z,82.50
2018-05-21T09:08:13.016Z,84.50
2018-05-21T09:10:40.508Z,82.80
2018-05-21T09:13:08.020Z,83.10
2018-05-21T09:15:35.514Z,83.20
2018-05-21T09:18:03.012Z,83.40
2018-05-21T09:20:31.296Z,85.80
2018-05-21T09:22:59.558Z,82.40
2018-05-21T09:25:27.073Z,82.40
2018-05-21T09:27:54.560Z,84.30
2018-05-21T09:30:23.580Z,79.70
2018-05-21T09:32:51.836Z,81.20
2018-05-21T09:35:19.351Z,81.20
2018-05-21T09:37:46.844Z,82.60
2018-05-21T09:40:14.352Z,80.10
2018-05-21T09:42:41.848Z,81.10
2018-05-21T09:45:09.348Z,80.60
2018-05-21T09:47:37.627Z,77.50
2018-05-21T09:50:05.885Z,80.10
2018-05-21T09:52:33.399Z,80.00
2018-05-21T09:55:00.893Z,78.20
2018-05-21T09:57:28.384Z,78.20
2018-05-21T09:59:56.663Z,77.90
2018-05-21T10:02:24.915Z,76.40
2018-05-21T10:04:52.428Z,76.40
2018-05-21T10:07:19.921Z,72.70
2018-05-21T10:09:47.432Z,74.70
2018-05-21T10:12:14.930Z,73.70
2018-05-21T10:14:42.434Z,70.50
2018-05-21T10:17:09.952Z,70.20
2018-05-21T10:19:37.448Z,70.90
2018-05-21T10:22:05.728Z,66.10
2018-05-21T10:24:33.219Z,66.00
2018-05-21T10:27:00.736Z,65.90
2018-05-21T10:29:28.997Z,65.60
2018-05-21T10:31:57.260Z,63.30
2018-05-21T10:34:24.778Z,62.40
2018-05-21T10:36:52.276Z,62.90
2018-05-21T10:39:19.795Z,60.30
2018-05-21T10:41:47.293Z,62.50
2018-05-21T10:44:14.783Z,60.30
2018-05-21T10:46:43.064Z,57.60
2018-05-21T10:49:10.560Z,57.60
2018-05-21T10:51:38.087Z,57.50
2018-05-21T10:54:05.584Z,56.80
2018-05-21T10:56:33.083Z,57.80
2018-05-21T10:59:01.367Z,57.00
2018-05-21T11:01:29.625Z,54.00
2018-05-21T11:03:57.924Z,55.00
2018-05-21T11:06:26.181Z,53.40
2018-05-21T11:08:53.696Z,53.30
2018-05-21T11:11:21.189Z,53.10
2018-05-21T11:13:48.704Z,54.00
2018-05-21T11:16:16.196Z,52.40
2018-05-21T11:18:43.715Z,50.30
2018-05-21T11:21:11.208Z,50.00
2018-05-21T11:23:39.468Z,51.90
2018-05-21T11:26:06.992Z,52.00
2018-05-21T11:28:34.542Z,48.70
2018-05-21T11:31:02.020Z,47.90
2018-05-21T11:33:29.517Z,49.70
2018-05-21T11:35:57.012Z,50.80
2018-05-21T11:38:25.291Z,45.20
2018-05-21T11:40:53.544Z,46.70
2018-05-21T11:43:21.064Z,46.60
2018-05-21T11:45:48.561Z,44.00
2018-05-21T11:48:16.081Z,42.50
2018-05-21T11:50:43.635Z,43.00
2018-05-21T11:53:11.080Z,42.40
2018-05-21T11:55:38.596Z,42.00
2018-05-21T11:58:06.093Z,40.80
2018-05-21T12:00:33.608Z,40.60
2018-05-21T12:03:01.101Z,37.40
2018-05-21T12:05:28.601Z,36.60
2018-05-21T12:07:56.112Z,36.10
2018-05-21T12:10:24.368Z,35.80
2018-05-21T12:12:51.889Z,35.70
2018-05-21T12:15:19.383Z,35.10
2018-05-21T12:17:46.902Z,33.50
2018-05-21T12:20:14.399Z,31.20
2018-05-21T12:22:41.916Z,30.70
2018-05-21T12:25:09.414Z,30.00
2018-05-21T12:27:36.911Z,27.70
2018-05-21T12:30:04.424Z,26.90
2018-05-21T12:32:31.916Z,27.10
2018-05-21T12:35:00.199Z,26.80
2018-05-21T12:37:27.696Z,26.90
2018-05-21T12:39:55.210Z,25.10
2018-05-21T12:42:23.472Z,25.70
2018-05-21T12:44:51.757Z,25.50
2018-05-21T12:47:20.021Z,25.30
2018-05-21T12:49:48.303Z,25.50
2018-05-21T12:52:16.564Z,24.70
2018-05-21T12:54:44.078Z,24.60
2018-05-21T12:57:11.589Z,24.10
2018-05-21T12:59:39.109Z,24.10
2018-05-21T13:02:06.599Z,24.80
2018-05-21T13:04:34.088Z,23.80
2018-05-21T13:07:01.616Z,23.50
2018-05-21T13:09:29.117Z,22.20
2018-05-21T13:11:56.632Z,23.50
2018-05-21T13:14:24.124Z,23.10
2018-05-21T13:16:51.640Z,23.60
2018-05-21T13:19:19.134Z,22.90
2018-05-21T13:21:47.392Z,22.50
2018-05-21T13:24:15.720Z,21.30
2018-05-21T13:26:43.191Z,21.20
2018-05-21T13:29:10.703Z,21.60
2018-05-21T13:31:38.955Z,22.50
2018-05-21T13:34:06.468Z,22.40
2018-05-21T13:36:33.960Z,23.10
2018-05-21T13:39:01.477Z,22.70
2018-05-21T13:41:28.971Z,21.80
2018-05-21T13:43:56.468Z,22.20
2018-05-21T13:46:24.744Z,23.60
2018-05-21T13:48:53.000Z,24.50
2018-05-21T13:51:20.526Z,24.50
2018-05-21T13:53:48.012Z,24.70
2018-05-21T13:56:15.528Z,25.00
2018-05-21T13:58:43.029Z,25.40
2018-05-21T14:01:10.545Z,25.70
2018-05-21T14:03:38.040Z,25.70
2018-05-21T14:06:05.536Z,27.30
2018-05-21T14:08:33.820Z,28.30
2018-05-21T14:11:01.311Z,28.20
2018-05-21T14:13:28.824Z,28.20
2018-05-21T14:15:57.083Z,29.70
2018-05-21T14:18:24.605Z,29.70
2018-05-21T14:20:52.095Z,30.20
2018-05-21T14:23:19.608Z,29.90
2018-05-21T14:25:47.101Z,30.00
2018-05-21T14:28:14.617Z,31.10
2018-05-21T14:30:42.113Z,30.70
2018-05-21T14:33:10.476Z,31.10
2018-05-21T14:35:37.903Z,30.50
2018-05-21T14:38:05.416Z,30.60
2018-05-21T14:40:32.913Z,31.40
2018-05-21T14:43:00.427Z,31.30
2018-05-21T14:45:27.922Z,32.50
2018-05-21T14:47:56.184Z,32.60
2018-05-21T14:50:23.696Z,32.60
2018-05-21T14:52:51.208Z,32.80
2018-05-21T14:55:19.492Z,34.70
2018-05-21T14:57:47.752Z,34.40
2018-05-21T15:00:16.036Z,35.10
2018-05-21T15:02:44.295Z,33.80
2018-05-21T15:05:11.791Z,33.80
2018-05-21T15:07:39.304Z,33.40
2018-05-21T15:10:06.792Z,33.00
2018-05-21T15:12:35.068Z,33.40
2018-05-21T15:15:03.331Z,33.60
2018-05-21T15:17:30.844Z,33.60
2018-05-21T15:19:58.340Z,33.10
2018-05-21T15:22:25.856Z,33.60
2018-05-21T15:24:53.351Z,34.00
2018-05-21T15:27:20.835Z,34.40
2018-05-21T15:29:49.112Z,35.40
2018-05-21T15:32:17.368Z,35.50
2018-05-21T15:34:44.884Z,35.50
2018-05-21T15:37:12.377Z,35.30
2018-05-21T15:39:39.892Z,35.90
2018-05-21T15:42:07.386Z,35.30
2018-05-21T15:44:34.904Z,35.90
2018-05-21T15:47:02.400Z,33.80
2018-05-21T15:49:29.888Z,34.80
2018-05-21T15:51:58.168Z,35.10
2018-05-21T15:54:26.433Z,35.50
2018-05-21T15:56:53.978Z,35.50
2018-05-21T15:59:21.479Z,34.80
2018-05-21T16:01:49.004Z,35.30
2018-05-21T16:04:16.495Z,34.60
2018-05-21T16:06:44.761Z,35.30
2018-05-21T16:09:13.126Z,34.80
2018-05-21T16:11:40.560Z,34.80
2018-05-21T16:14:08.076Z,34.00
2018-05-21T16:16:35.568Z,34.90
2018-05-21T16:19:03.083Z,34.40
2018-05-21T16:21:30.576Z,36.70
2018-05-21T16:23:58.068Z,35.30
2018-05-21T16:26:25.584Z,34.80
2018-05-21T16:28:53.082Z,33.40
2018-05-21T16:31:20.607Z,35.30
2018-05-21T16:33:48.104Z,34.40
2018-05-21T16:36:15.625Z,33.70
2018-05-21T16:38:43.115Z,33.30
2018-05-21T16:41:10.608Z,34.10
2018-05-21T16:43:38.128Z,34.60
2018-05-21T16:46:05.621Z,34.40
2018-05-21T16:48:33.896Z,34.50
2018-05-21T16:51:02.152Z,35.50
2018-05-21T16:53:29.668Z,35.50
2018-05-21T16:55:57.160Z,34.60
2018-05-21T16:58:24.676Z,35.00
2018-05-21T17:00:52.169Z,35.50
2018-05-21T17:03:19.664Z,35.00
2018-05-21T17:05:47.944Z,35.70
2018-05-21T17:08:15.437Z,35.60
2018-05-21T17:10:42.965Z,35.80
2018-05-21T17:13:10.464Z,36.10
2018-05-21T17:15:37.976Z,36.40
2018-05-21T17:18:06.236Z,37.20
2018-05-21T17:20:34.516Z,36.40
2018-05-21T17:23:02.775Z,36.80
2018-05-21T17:25:30.264Z,36.80
2018-05-21T17:27:58.540Z,37.20
2018-05-21T17:30:26.800Z,37.60
2018-05-21T17:32:55.080Z,38.30
2018-05-21T17:35:23.391Z,38.30
2018-05-21T17:37:51.636Z,38.80
2018-05-21T17:40:19.897Z,38.70
2018-05-21T17:42:47.412Z,38.70
2018-05-21T17:45:14.900Z,39.10
2018-05-21T17:47:42.413Z,39.40
2018-05-21T17:50:09.912Z,39.10
2018-05-21T17:52:37.403Z,39.80
2018-05-21T17:55:05.683Z,39.50
2018-05-21T17:57:33.936Z,39.80
2018-05-21T18:00:01.452Z,39.80
2018-05-21T18:02:28.944Z,39.70
2018-05-21T18:04:56.468Z,40.20
2018-05-21T18:07:23.963Z,40.60
2018-05-21T18:09:51.480Z,41.60
2018-05-21T18:12:18.972Z,41.30
2018-05-21T18:14:46.488Z,42.00
2018-05-21T18:17:13.980Z,41.80
2018-05-21T18:19:41.473Z,41.50
2018-05-21T18:22:08.990Z,42.00
2018-05-21T18:24:36.480Z,42.30
2018-05-21T18:27:03.996Z,42.40
2018-05-21T18:29:31.549Z,42.60
2018-05-21T18:31:59.064Z,42.80
2018-05-21T18:34:26.557Z,42.60
2018-05-21T18:36:54.075Z,42.70
2018-05-21T18:39:21.572Z,43.10
2018-05-21T18:41:49.089Z,43.00
2018-05-21T18:44:16.586Z,43.20
2018-05-21T18:46:44.080Z,43.00
2018-05-21T18:49:11.600Z,43.10
2018-05-21T18:51:39.097Z,43.30
2018-05-21T18:54:06.612Z,43.50
2018-05-21T18:56:34.867Z,43.50
2018-05-21T18:59:03.156Z,43.70
2018-05-21T19:01:31.413Z,43.80
2018-05-21T19:03:58.928Z,43.80
2018-05-21T19:06:26.433Z,43.60
2018-05-21T19:08:54.700Z,44.40
2018-05-21T19:11:22.212Z,43.90
2018-05-21T19:13:49.704Z,43.90
2018-05-21T19:16:17.215Z,44.50
2018-05-21T19:18:44.720Z,44.70
2018-05-21T19:21:12.235Z,44.90
2018-05-21T19:23:39.732Z,45.00
2018-05-21T19:26:07.251Z,44.20
2018-05-21T19:28:34.744Z,44.00
2018-05-21T19:31:02.232Z,44.30
2018-05-21T19:33:29.745Z,44.80
2018-05-21T19:35:57.239Z,45.40
2018-05-21T19:38:24.753Z,45.60
2018-05-21T19:40:52.248Z,46.00
2018-05-21T19:43:19.761Z,46.40
2018-05-21T19:45:47.255Z,46.70
2018-05-21T19:48:14.779Z,46.90
2018-05-21T19:50:42.271Z,47.00
2018-05-21T19:53:09.793Z,47.40
2018-05-21T19:55:37.287Z,47.30
2018-05-21T19:58:04.785Z,47.60
2018-05-21T20:00:33.088Z,48.00
2018-05-21T20:03:00.580Z,48.00
2018-05-21T20:05:28.864Z,48.10
2018-05-21T20:07:56.356Z,48.00
2018-05-21T20:10:24.636Z,48.70
2018-05-21T20:12:52.892Z,48.70
2018-05-21T20:15:20.385Z,48.70
2018-05-21T20:17:48.666Z,49.10
2018-05-21T20:20:16.163Z,49.10
2018-05-21T20:22:43.680Z,49.10
2018-05-21T20:25:11.175Z,49.00
2018-05-21T20:27:38.688Z,49.10
2018-05-21T20:30:06.940Z,49.70
2018-05-21T20:32:34.460Z,49.70
2018-05-21T20:35:01.957Z,50.10
2018-05-21T20:37:29.476Z,50.40
2018-05-21T20:39:56.968Z,50.50
2018-05-21T20:42:24.465Z,50.30
2018-05-21T20:44:51.979Z,50.40
2018-05-21T20:47:19.468Z,50.70
2018-05-21T20:49:47.756Z,51.50
2018-05-21T20:52:15.248Z,51.60
2018-05-21T20:54:42.768Z,51.90
2018-05-21T20:57:11.024Z,52.20
2018-05-21T20:59:38.512Z,52.20
2018-05-21T21:02:06.028Z,52.40
2018-05-21T21:04:33.520Z,52.50
2018-05-21T21:07:01.800Z,52.50
2018-05-21T21:09:29.290Z,52.50
2018-05-21T21:11:56.810Z,52.40
2018-05-21T21:14:25.072Z,52.20
2018-05-21T21:16:52.589Z,52.20
2018-05-21T21:19:20.085Z,52.30
2018-05-21T21:21:47.576Z,52.50
2018-05-21T21:24:15.095Z,52.70
2018-05-21T21:26:42.590Z,52.70
2018-05-21T21:29:10.105Z,52.80
2018-05-21T21:31:37.600Z,53.00
2018-05-21T21:34:05.884Z,53.10
2018-05-21T21:36:33.376Z,53.10
2018-05-21T21:39:00.873Z,53.20
2018-05-21T21:41:28.387Z,53.50
2018-05-21T21:43:55.880Z,53.00
2018-05-21T21:46:23.399Z,53.90
2018-05-21T21:48:50.900Z,54.40
2018-05-21T21:51:18.417Z,54.80
2018-05-21T21:53:45.903Z,55.30
2018-05-21T21:56:13.421Z,55.90
2018-05-21T21:58:40.911Z,56.00
2018-05-21T22:01:08.405Z,56.30
2018-05-21T22:03:36.684Z,56.80
2018-05-21T22:06:04.950Z,56.70
2018-05-21T22:08:32.468Z,56.60
2018-05-21T22:10:59.960Z,57.40
2018-05-21T22:13:27.476Z,57.00
2018-05-21T22:15:54.973Z,57.40
2018-05-21T22:18:22.463Z,57.30
2018-05-21T22:20:50.747Z,57.80
2018-05-21T22:23:18.240Z,57.80
2018-05-21T22:25:45.758Z,57.90
2018-05-21T22:28:13.307Z,58.10
2018-05-21T22:30:40.804Z,58.00
2018-05-21T22:33:08.300Z,58.10
2018-05-21T22:35:35.792Z,58.20
2018-05-21T22:38:04.072Z,58.50
2018-05-21T22:40:31.563Z,58.50
2018-05-21T22:42:59.079Z,58.70
2018-05-21T22:45:27.337Z,59.30
2018-05-21T22:47:54.852Z,59.30
2018-05-21T22:50:22.339Z,59.60
2018-05-21T22:52:49.860Z,59.90
2018-05-21T22:55:17.366Z,60.20
2018-05-21T22:57:44.861Z,60.40
2018-05-21T23:00:12.377Z,60.90
2018-05-21T23:02:41.373Z,61.90
2018-05-21T23:05:08.892Z,61.90
2018-05-21T23:07:36.389Z,62.30
2018-05-21T23:10:03.908Z,63.90
2018-05-21T23:12:31.400Z,63.50
2018-05-21T23:14:58.919Z,64.30
2018-05-21T23:17:26.416Z,64.70
2018-05-21T23:19:53.904Z,65.60
2018-05-21T23:22:22.184Z,67.10
2018-05-21T23:24:50.444Z,67.40
2018-05-21T23:27:17.963Z,67.40
2018-05-21T23:29:45.465Z,67.80
2018-05-21T23:32:13.752Z,68.10
2018-05-21T23:34:42.012Z,69.40
2018-05-21T23:37:09.504Z,69.30
2018-05-21T23:39:37.024Z,69.40
2018-05-21T23:42:04.516Z,69.90
2018-05-21T23:44:32.036Z,70.20
2018-05-21T23:46:59.528Z,70.90
2018-05-21T23:49:27.808Z,72.30
2018-05-21T23:51:55.304Z,72.20
2018-05-21T23:54:22.796Z,72.60
2018-05-21T23:56:50.316Z,73.10
2018-05-21T23:59:17.808Z,73.90
